Time;durP1;ratioP1;P1;durP2;ratioP2;P2;SDS_P1;SDS_P2;PMS_P1;PMS_P2;Temp;Humidity;BMP_temperature;BMP_pressure;BME280_temperature;BME280_humidity;BME280_pressure;Samples;Min_cycle;Max_cycle;Signal;HPM_P1;HPM_P2
2022/09/20 00:00:44;;;;;;;;;;;;;;;8.92;76.84;100625.94;1600818;88;20217;-79
2022/09/20 00:03:29;;;;;;;;;;;;;;;8.91;76.80;100628.09;1606954;88;20184;-79
2022/09/20 00:06:17;;;;;;;;;;;;;;;8.91;76.81;100626.37;1609572;88;20227;-79
2022/09/20 00:09:03;;;;;;;;;;;;;;;8.92;76.75;100626.79;1609664;88;20197;-79
2022/09/20 00:11:47;;;;;;;;;;;;;;;8.91;76.77;100628.09;1594383;88;20212;-78
2022/09/20 00:14:32;;;;;;;;;;;;;;;8.88;76.81;100624.25;1599715;88;20226;-78
2022/09/20 00:17:17;;;;;;;;;;;;;;;8.87;76.84;100628.55;1599204;88;20182;-78
2022/09/20 00:20:01;;;;;;;;;;;;;;;8.88;76.84;100631.98;1589532;88;20193;-78
2022/09/20 00:22:48;;;;;;;;;;;;;;;8.88;76.83;100632.84;1600390;88;20181;-78
2022/09/20 00:25:33;;;;;;;;;;;;;;;8.86;76.83;100632.43;1589422;88;20190;-78
2022/09/20 00:28:17;;;;;;;;;;;;;;;8.83;76.86;100625.61;1607965;87;20207;-78
2022/09/20 00:31:02;;;;;;;;;;;;;;;8.81;76.86;100629.07;1621506;87;20214;-78
2022/09/20 00:36:50;;;;;;;;;;;;;;;8.81;76.89;100630.36;1629357;87;20655;-78
2022/09/20 00:39:35;;;;;;;;;;;;;;;8.80;76.89;100626.07;1611122;87;20505;-78
2022/09/20 00:42:23;;;;;;;;;;;;;;;8.79;76.95;100635.53;1606863;87;20269;-78
2022/09/20 00:45:11;;;;;;;;;;;;;;;8.76;76.92;100632.98;1609089;87;20170;-78
2022/09/20 00:48:02;;;;;;;;;;;;;;;8.76;76.94;100641.14;1617559;87;20777;-78
2022/09/20 00:50:50;;;;;;;;;;;;;;;8.76;76.95;100635.55;1626796;87;20205;-78
2022/09/20 00:53:39;;;;;;;;;;;;;;;8.75;76.92;100644.59;1621053;86;20234;-78
2022/09/20 00:56:27;;;;;;;;;;;;;;;8.75;76.97;100643.30;1623547;87;20203;-78
2022/09/20 00:59:18;;;;;;;;;;;;;;;8.72;76.93;100647.19;1616560;87;20149;-78
2022/09/20 01:02:09;;;;;;;;;;;;;;;8.70;76.97;100639.91;1628728;87;20468;-78
2022/09/20 01:04:56;;;;;;;;;;;;;;;8.68;77.01;100646.80;1607798;87;20222;-78
2022/09/20 01:07:42;;;;;;;;;;;;;;;8.67;77.01;100652.81;1610719;87;20179;-78
2022/09/20 01:10:27;;;;;;;;;;;;;;;8.66;77.04;100656.26;1615947;87;20198;-78
2022/09/20 01:13:12;;;;;;;;;;;;;;;8.65;77.06;100654.11;1611838;87;20222;-78
2022/09/20 01:15:59;;;;;;;;;;;;;;;8.67;77.08;100658.83;1616063;87;20194;-78
2022/09/20 01:18:45;;;;;;;;;;;;;;;8.67;77.06;100657.53;1618191;87;20181;-78
2022/09/20 01:21:30;;;;;;;;;;;;;;;8.67;77.04;100659.26;1606833;87;20506;-78
2022/09/20 01:24:27;;;;;;;;;;;;;;;8.64;77.06;100658.84;1621623;87;20230;-78
2022/09/20 01:27:35;;;;;;;;;;;;;;;8.66;77.10;100654.97;1620684;87;20174;-78
2022/09/20 01:30:23;;;;;;;;;;;;;;;8.65;77.07;100656.69;1615047;87;20194;-78
2022/09/20 01:33:17;;;;;;;;;;;;;;;8.64;77.08;100652.41;1614387;87;20233;-78
2022/09/20 01:36:04;;;;;;;;;;;;;;;8.66;77.10;100651.96;1617514;87;20511;-78
2022/09/20 01:39:11;;;;;;;;;;;;;;;8.65;77.10;100652.83;1606757;87;20230;-78
2022/09/20 01:42:07;;;;;;;;;;;;;;;8.63;77.06;100659.71;1607442;87;20198;-78
2022/09/20 01:45:08;;;;;;;;;;;;;;;8.61;77.09;100661.02;1608437;87;20213;-78
2022/09/20 01:48:15;;;;;;;;;;;;;;;8.57;77.04;100655.89;1620037;87;20190;-78
2022/09/20 01:51:37;;;;;;;;;;;;;;;8.55;77.08;100656.34;1607321;87;20241;-78
2022/09/20 01:54:43;;;;;;;;;;;;;;;8.53;77.12;100655.48;1627107;87;20612;-78
2022/09/20 01:57:49;;;;;;;;;;;;;;;8.52;77.21;100657.64;1619075;87;20179;-78
2022/09/20 02:00:56;;;;;;;;;;;;;;;8.53;77.24;100656.34;1602721;87;20197;-78
2022/09/20 02:04:02;;;;;;;;;;;;;;;8.55;77.25;100655.05;1609994;87;20225;-78
2022/09/20 02:07:05;;;;;;;;;;;;;;;8.56;77.39;100655.03;1610565;87;20207;-78
2022/09/20 02:10:27;;;;;;;;;;;;;;;8.56;77.31;100656.33;1622203;87;20185;-78
2022/09/20 02:13:28;;;;;;;;;;;;;;;;;;1607961;87;20166;-78
2022/09/20 02:16:31;;;;;;;;;;;;;;;8.62;77.40;100658.86;1596555;89;20217;-78
2022/09/20 02:19:39;;;;;;;;;;;;;;;8.68;77.36;100660.97;1607582;87;20205;-78
2022/09/20 02:23:01;;;;;;;;;;;;;;;8.70;77.36;100663.95;1611644;87;20186;-78
2022/09/20 02:25:58;;;;;;;;;;;;;;;8.72;77.36;100665.23;1608950;87;20522;-78
2022/09/20 02:28:52;;;;;;;;;;;;;;;8.73;77.34;100672.10;1614222;87;20530;-79
2022/09/20 02:31:50;;;;;;;;;;;;;;;8.72;77.36;100675.55;1612341;88;20186;-79
2022/09/20 02:34:45;;;;;;;;;;;;;;;;;;1595142;88;20203;-79
2022/09/20 02:37:43;;;;;;;;;;;;;;;8.71;77.33;100682.86;1600294;88;20456;-79
2022/09/20 02:40:46;;;;;;;;;;;;;;;8.71;77.33;100675.13;1598822;88;20485;-78
2022/09/20 02:43:59;;;;;;;;;;;;;;;8.70;77.29;100685.88;1611382;88;20184;-78
2022/09/20 02:46:59;;;;;;;;;;;;;;;8.68;77.30;100683.73;1600679;88;20500;-78
2022/09/20 02:50:00;;;;;;;;;;;;;;;8.67;77.31;100685.89;1595627;88;20199;-78
2022/09/20 02:52:50;;;;;;;;;;;;;;;8.67;77.33;100681.17;1591556;88;20465;-78
2022/09/20 02:56:01;;;;;;;;;;;;;;;8.65;77.29;100681.61;1593693;88;20354;-78
2022/09/20 02:59:09;;;;;;;;;;;;;;;8.62;77.22;100689.79;1592527;88;20470;-79
2022/09/20 03:02:26;;;;;;;;;;;;;;;8.59;77.21;100691.09;1597737;88;20623;-78
2022/09/20 03:05:20;;;;;;;;;;;;;;;8.54;77.17;100696.72;1591901;88;20853;-78
2022/09/20 03:08:36;;;;;;;;;;;;;;;8.52;77.22;100698.88;1591976;88;20569;-79
2022/09/20 03:11:51;;;;;;;;;;;;;;;8.49;77.24;100700.19;1572208;90;20207;-78
2022/09/20 03:14:51;;;;;;;;;;;;;;;8.44;77.21;100702.79;1595966;87;20329;-78
2022/09/20 03:17:42;;;;;;;;;;;;;;;8.39;77.27;100704.53;1591423;88;20445;-78
2022/09/20 03:20:52;;;;;;;;;;;;;;;8.37;77.28;100708.84;1595595;88;20197;-78
2022/09/20 03:24:05;;;;;;;;;;;;;;;8.36;77.33;100698.11;1598222;88;20545;-78
2022/09/20 03:29:41;;;;;;;;;;;;;;;8.39;77.41;100700.67;1822860;78;20159;-79
2022/09/20 03:33:03;;;;;;;;;;;;;;;8.37;77.42;100711.42;1772100;79;20425;-79
2022/09/20 03:35:55;;;;;;;;;;;;;;;8.39;77.46;100709.69;1779514;79;20145;-78
2022/09/20 03:39:17;;;;;;;;;;;;;;;8.41;77.50;100709.25;1761259;79;20464;-78
2022/09/20 03:42:11;;;;;;;;;;;;;;;8.44;77.53;100714.81;1745105;80;20566;-78
2022/09/20 03:45:25;;;;;;;;;;;;;;;8.47;77.49;100708.36;1790034;79;20158;-79
2022/09/20 03:48:30;;;;;;;;;;;;;;;8.48;77.56;100712.65;1758530;80;20140;-79
2022/09/20 03:51:28;;;;;;;;;;;;;;;8.50;77.59;100713.49;1704280;79;20132;-79
2022/09/20 03:54:33;;;;;;;;;;;;;;;8.54;77.68;100721.20;1703340;80;20543;-79
2022/09/20 03:57:50;;;;;;;;;;;;;;;8.59;77.67;100719.88;1764247;80;20126;-78
2022/09/20 04:00:55;;;;;;;;;;;;;;;8.61;77.65;100720.30;1747189;79;20151;-78
2022/09/20 04:03:52;;;;;;;;;;;;;;;8.65;77.66;100722.86;1727007;80;20224;-78
2022/09/20 04:07:06;;;;;;;;;;;;;;;8.68;77.71;100726.27;1775079;80;20190;-80
2022/09/20 04:10:00;;;;;;;;;;;;;;;8.73;77.71;100732.69;1761824;80;20197;-78
2022/09/20 04:13:22;;;;;;;;;;;;;;;8.76;77.77;100732.67;1770663;80;20165;-82
2022/09/20 04:16:31;;;;;;;;;;;;;;;8.76;77.76;100724.50;1748312;80;20188;-79
2022/09/20 04:19:24;;;;;;;;;;;;;;;8.79;77.79;100724.91;1768277;80;20516;-79
2022/09/20 04:22:09;;;;;;;;;;;;;;;8.82;77.78;100727.47;1756377;80;20130;-77
2022/09/20 04:25:19;;;;;;;;;;;;;;;8.84;77.76;100729.57;1763145;79;20097;-76
2022/09/20 04:28:21;;;;;;;;;;;;;;;8.86;77.79;100736.43;1765577;80;20102;-78
2022/09/20 04:31:15;;;;;;;;;;;;;;;8.90;77.80;100739.41;1785342;79;20122;-78
2022/09/20 04:34:02;;;;;;;;;;;;;;;8.91;77.82;100729.52;1774794;80;20102;-78
2022/09/20 04:37:01;;;;;;;;;;;;;;;8.93;77.76;100735.52;1758185;80;20128;-78
2022/09/20 04:39:49;;;;;;;;;;;;;;;8.96;77.89;100738.51;1753920;80;20190;-78
2022/09/20 04:42:44;;;;;;;;;;;;;;;9.00;77.83;100732.90;1767683;79;20136;-78
2022/09/20 04:45:50;;;;;;;;;;;;;;;9.02;77.87;100737.17;1769502;80;20178;-78
2022/09/20 04:48:51;;;;;;;;;;;;;;;9.03;77.87;100727.28;1759849;80;20209;-78
2022/09/20 04:51:39;;;;;;;;;;;;;;;9.05;77.84;100735.01;1753095;79;21141;-78
2022/09/20 04:54:43;;;;;;;;;;;;;;;9.06;77.86;100736.28;1761200;79;21129;-78
2022/09/20 04:57:57;;;;;;;;;;;;;;;9.07;77.91;100738.44;1767203;80;20508;-79
2022/09/20 05:01:01;;;;;;;;;;;;;;;9.06;77.87;100736.28;1747123;80;20197;-79
2022/09/20 05:04:21;;;;;;;;;;;;;;;9.06;77.88;100745.31;1751751;80;20456;-79
2022/09/20 05:07:26;;;;;;;;;;;;;;;9.07;77.92;100751.33;1744222;80;20188;-78
2022/09/20 05:10:34;;;;;;;;;;;;;;;9.09;78.20;100759.48;1726787;82;20530;-78
2022/09/20 05:13:34;;;;;;;;;;;;;;;9.11;78.03;100756.89;1738670;80;20208;-78
2022/09/20 05:16:42;;;;;;;;;;;;;;;9.13;78.09;100765.47;1735174;82;20242;-78
2022/09/20 05:19:51;;;;;;;;;;;;;;;9.16;78.05;100764.16;1733184;81;20603;-78
2022/09/20 05:22:41;;;;;;;;;;;;;;;9.23;78.10;100772.27;1735690;81;20204;-78
2022/09/20 05:25:44;;;;;;;;;;;;;;;9.29;78.04;100778.67;1728469;81;20202;-78
2022/09/20 05:28:59;;;;;;;;;;;;;;;9.33;78.07;100778.22;1699205;82;20216;-78
2022/09/20 05:31:59;;;;;;;;;;;;;;;9.39;78.09;100788.45;1716129;82;20188;-78
2022/09/20 05:34:50;;;;;;;;;;;;;;;9.44;78.19;100794.00;1730343;82;21070;-79
2022/09/20 05:37:58;;;;;;;;;;;;;;;9.45;78.06;100797.01;1727702;80;20452;-79
2022/09/20 05:40:46;;;;;;;;;;;;;;;9.47;78.08;100796.56;1721954;81;20138;-79
2022/09/20 05:43:33;;;;;;;;;;;;;;;9.51;78.12;100800.83;1725245;81;20226;-79
2022/09/20 05:46:34;;;;;;;;;;;;;;;9.54;78.06;100793.05;1710278;79;20178;-79
2022/09/20 05:49:51;;;;;;;;;;;;;;;9.58;78.09;100792.16;1768373;80;20557;-79
2022/09/20 05:53:07;;;;;;;;;;;;;;;9.62;78.10;100794.28;1768211;80;20194;-79
2022/09/20 05:55:58;;;;;;;;;;;;;;;9.66;78.09;100798.55;1750530;79;20166;-79
2022/09/20 05:58:52;;;;;;;;;;;;;;;9.69;78.06;100798.52;1761600;80;20193;-79
2022/09/20 06:01:39;;;;;;;;;;;;;;;9.72;78.09;100801.07;1736492;79;20513;-79
2022/09/20 06:04:28;;;;;;;;;;;;;;;9.74;78.07;100806.22;1684317;81;616246;-79
2022/09/20 06:07:34;;;;;;;;;;;;;;;9.75;78.06;100811.80;1670102;83;20120;-79
2022/09/20 06:10:31;;;;;;;;;;;;;;;9.76;78.08;100813.52;1661240;84;20542;-79
2022/09/20 06:13:35;;;;;;;;;;;;;;;9.77;78.09;100804.90;1664007;84;20107;-79
2022/09/20 06:16:44;;;;;;;;;;;;;;;9.79;78.07;100804.45;1671414;84;20111;-79
2022/09/20 06:19:44;;;;;;;;;;;;;;;9.81;78.08;100813.89;1673676;85;20108;-79
2022/09/20 06:22:31;;;;;;;;;;;;;;;9.86;78.12;100817.29;1673106;85;20706;-79
2022/09/20 06:25:19;;;;;;;;;;;;;;;9.88;78.09;100820.69;1670213;84;20464;-79
2022/09/20 06:28:09;;;;;;;;;;;;;;;9.89;78.04;100817.23;1673601;85;20108;-79
2022/09/20 06:30:55;;;;;;;;;;;;;;;9.92;78.12;100824.95;1674437;83;20157;-79
2022/09/20 06:33:49;;;;;;;;;;;;;;;9.94;78.13;100829.66;1670173;84;20229;-79
2022/09/20 06:42:53;;;;;;;;;;;;;;;10.07;78.16;100836.00;1673839;82;20454;-78
2022/09/20 06:45:38;;;;;;;;;;;;;;;10.13;78.18;100843.25;1671763;83;20193;-78
2022/09/20 06:48:24;;;;;;;;;;;;;;;10.19;78.17;100846.21;1669682;84;20191;-78
2022/09/20 06:51:09;;;;;;;;;;;;;;;10.22;78.22;100843.19;1658211;84;20186;-79
2022/09/20 06:53:55;;;;;;;;;;;;;;;10.27;78.21;100844.44;1665747;84;20196;-78
2022/09/20 06:56:39;;;;;;;;;;;;;;;10.34;78.29;100849.09;1650310;84;20194;-78
2022/09/20 06:59:24;;;;;;;;;;;;;;;10.41;78.27;100853.30;1669339;84;20136;-78
2022/09/20 07:02:09;;;;;;;;;;;;;;;10.47;78.25;100854.08;1668937;84;20459;-78
2022/09/20 07:04:56;;;;;;;;;;;;;;;10.54;78.27;100860.03;1664227;84;20249;-78
2022/09/20 07:07:42;;;;;;;;;;;;;;;10.58;78.23;100857.84;1673800;84;20857;-78
2022/09/20 07:10:28;;;;;;;;;;;;;;;10.69;78.21;100862.88;1654532;84;20250;-78
2022/09/20 07:13:12;;;;;;;;;;;;;;;10.81;78.35;100860.99;1663549;84;20155;-78
2022/09/20 07:16:02;;;;;;;;;;;;;;;10.92;78.30;100868.58;1666195;84;20570;-78
2022/09/20 07:18:48;;;;;;;;;;;;;;;11.05;78.20;100874.45;1655246;84;20198;-78
2022/09/20 07:21:32;;;;;;;;;;;;;;;11.07;78.08;100883.91;1668433;84;20143;-78
2022/09/20 07:24:17;;;;;;;;;;;;;;;11.12;77.97;100887.72;1676466;84;20379;-78
2022/09/20 07:27:04;;;;;;;;;;;;;;;11.16;78.09;100890.69;1663965;84;20204;-78
2022/09/20 07:29:49;;;;;;;;;;;;;;;11.39;78.17;100890.36;1647771;84;20271;-78
2022/09/20 07:32:33;;;;;;;;;;;;;;;11.45;77.91;100893.69;1647394;85;20189;-79
2022/09/20 07:35:18;;;;;;;;;;;;;;;11.41;77.74;100893.78;1640993;85;20212;-79
2022/09/20 07:38:02;;;;;;;;;;;;;;;11.42;77.74;100898.08;1645525;85;20197;-79
2022/09/20 07:40:59;;;;;;;;;;;;;;;11.62;77.84;100902.49;1649875;85;21085;-79
2022/09/20 07:43:44;;;;;;;;;;;;;;;11.61;77.67;100905.95;1644860;85;20169;-79
2022/09/20 07:46:34;;;;;;;;;;;;;;;11.75;77.69;100907.89;1651989;85;20452;-79
2022/09/20 07:49:16;;;;;;;;;;;;;;;11.78;77.69;100912.20;1640934;85;20556;-79
2022/09/20 07:52:00;;;;;;;;;;;;;;;11.81;77.89;100917.34;1649780;85;20276;-79
2022/09/20 07:54:46;;;;;;;;;;;;;;;12.07;77.89;100914.28;1647221;85;20480;-79
2022/09/20 07:57:36;;;;;;;;;;;;;;;12.23;77.72;100920.47;1652670;85;20241;-79
2022/09/20 08:00:21;;;;;;;;;;;;;;;12.32;77.76;100916.86;1645179;85;20224;-79
2022/09/20 08:03:06;;;;;;;;;;;;;;;12.76;77.67;100916.42;1652141;85;20177;-79
2022/09/20 08:05:50;;;;;;;;;;;;;;;12.81;77.25;100916.75;1649921;85;20202;-79
2022/09/20 08:08:37;;;;;;;;;;;;;;;13.05;77.37;100926.18;1649264;84;20202;-79
2022/09/20 08:11:24;;;;;;;;;;;;;;;13.12;77.23;100927.77;1649301;85;20596;-78
2022/09/20 08:14:17;;;;;;;;;;;;;;;13.37;77.10;100926.38;1643212;85;20260;-78
2022/09/20 08:17:01;;;;;;;;;;;;;;;13.27;76.96;100925.31;1648578;85;20189;-78
2022/09/20 08:19:46;;;;;;;;;;;;;;;13.42;77.04;100924.97;1647507;85;20162;-79
2022/09/20 08:22:31;;;;;;;;;;;;;;;13.52;76.93;100925.14;1645881;84;20208;-79
2022/09/20 08:25:17;;;;;;;;;;;;;;;14.15;77.16;100925.75;1649668;85;20265;-79
2022/09/20 08:28:01;;;;;;;;;;;;;;;14.93;76.67;100915.81;1657421;85;20620;-79
2022/09/20 08:30:46;;;;;;;;;;;;;;;15.01;76.36;100918.60;1657738;84;20188;-79
2022/09/20 08:33:32;;;;;;;;;;;;;;;14.75;76.36;100924.55;1665076;82;20172;-79
2022/09/20 08:36:19;;;;;;;;;;;;;;;14.52;76.55;100924.37;1668958;84;20200;-79
2022/09/20 08:39:04;;;;;;;;;;;;;;;14.34;76.85;100928.28;1660827;84;20677;-79
2022/09/20 08:42:13;;;;;;;;;;;;;;;14.19;77.00;100935.17;1661394;84;20217;-79
2022/09/20 08:45:01;;;;;;;;;;;;;;;14.18;77.00;100942.58;1669983;84;20582;-79
2022/09/20 08:47:52;;;;;;;;;;;;;;;14.11;76.88;100936.67;1668535;84;20207;-79
2022/09/20 08:50:37;;;;;;;;;;;;;;;14.04;76.93;100940.77;1667077;84;20226;-79
2022/09/20 08:53:22;;;;;;;;;;;;;;;13.95;76.98;100939.27;1669362;84;20184;-79
2022/09/20 08:56:08;;;;;;;;;;;;;;;13.89;77.08;100938.98;1666487;84;20168;-79
2022/09/20 08:58:53;;;;;;;;;;;;;;;13.86;77.30;100942.95;1664074;84;20199;-79
2022/09/20 09:01:37;;;;;;;;;;;;;;;13.85;77.17;100946.44;1667393;84;20287;-79
2022/09/20 09:04:23;;;;;;;;;;;;;;;13.84;77.06;100941.28;1667711;84;20243;-79
2022/09/20 09:07:12;;;;;;;;;;;;;;;13.85;77.06;100941.69;1668413;84;20243;-79
2022/09/20 09:09:56;;;;;;;;;;;;;;;13.94;76.94;100944.06;1662782;84;20169;-79
2022/09/20 09:12:45;;;;;;;;;;;;;;;13.98;76.94;100950.05;1667879;84;20183;-79
2022/09/20 09:15:32;;;;;;;;;;;;;;;14.14;77.09;100948.74;1655455;84;20182;-79
2022/09/20 09:18:17;;;;;;;;;;;;;;;14.27;77.04;100943.64;1640861;84;20163;-79
2022/09/20 09:21:03;;;;;;;;;;;;;;;14.35;76.93;100945.59;1661417;84;20244;-79
2022/09/20 09:24:08;;;;;;;;;;;;;;;14.41;76.68;100948.06;1667494;84;20191;-79
2022/09/20 09:27:08;;;;;;;;;;;;;;;14.49;76.63;100956.97;1660840;84;20470;-79
2022/09/20 09:29:54;;;;;;;;;;;;;;;14.51;76.50;100957.34;1656924;84;20182;-79
2022/09/20 09:32:39;;;;;;;;;;;;;;;14.47;76.33;100956.16;1662519;83;20451;-79
2022/09/20 09:35:30;;;;;;;;;;;;;;;14.42;76.47;100951.08;1677708;84;20605;-79
2022/09/20 09:38:22;;;;;;;;;;;;;;;14.32;76.23;100957.83;1666555;84;20498;-79
2022/09/20 09:41:34;;;;;;;;;;;;;;;14.24;76.36;100958.87;1658954;84;20196;-79
2022/09/20 09:44:19;;;;;;;;;;;;;;;14.17;76.24;100962.97;1658360;84;20212;-79
2022/09/20 09:47:07;;;;;;;;;;;;;;;14.08;76.25;100958.85;1665984;84;20203;-79
2022/09/20 09:49:59;;;;;;;;;;;;;;;14.05;76.48;100961.52;1674832;84;20205;-79
2022/09/20 09:52:47;;;;;;;;;;;;;;;14.03;76.44;100959.89;1666158;84;20247;-79
2022/09/20 09:55:36;;;;;;;;;;;;;;;14.02;76.55;100955.58;1662957;84;20179;-79
2022/09/20 09:58:33;;;;;;;;;;;;;;;14.04;76.38;100948.56;1655170;84;20167;-79
2022/09/20 10:01:30;;;;;;;;;;;;;;;14.04;76.27;100948.12;1619614;84;20179;-79
2022/09/20 10:04:39;;;;;;;;;;;;;;;14.02;76.22;100954.28;1657747;84;20199;-79
2022/09/20 10:07:36;;;;;;;;;;;;;;;14.02;76.24;100951.68;1655384;84;21325;-79
2022/09/20 10:10:40;;;;;;;;;;;;;;;14.03;76.11;100942.98;1666834;84;20250;-79
2022/09/20 10:13:37;;;;;;;;;;;;;;;14.02;76.11;100943.88;1665609;84;20187;-79
2022/09/20 10:16:34;;;;;;;;;;;;;;;14.06;76.33;100946.78;1663948;84;20536;-79
2022/09/20 10:19:41;;;;;;;;;;;;;;;14.10;76.17;100947.11;1662868;84;20195;-79
2022/09/20 10:22:47;;;;;;;;;;;;;;;14.19;76.08;100949.48;1667478;83;20188;-79
2022/09/20 10:26:05;;;;;;;;;;;;;;;14.27;75.84;100942.34;1658136;83;20176;-79
2022/09/20 10:29:02;;;;;;;;;;;;;;;14.38;75.75;100950.72;1659497;84;20514;-79
2022/09/20 10:32:08;;;;;;;;;;;;;;;14.48;75.66;100947.45;1663931;84;20620;-79
2022/09/20 10:34:57;;;;;;;;;;;;;;;14.54;75.71;100949.90;1667252;84;20465;-79
2022/09/20 10:37:47;;;;;;;;;;;;;;;14.70;75.73;100935.55;1663796;84;20463;-79
2022/09/20 10:43:13;;;;;;;;;;;;;;;14.94;75.79;100950.92;1669553;84;20207;-79
2022/09/20 10:43:55;;;;;;;;;;;;;;;15.11;75.59;100943.90;1671401;84;20183;-79
2022/09/20 10:47:05;;;;;;;;;;;;;;;15.19;75.34;100945.83;1654397;84;20184;-79
2022/09/20 10:50:08;;;;;;;;;;;;;;;15.19;75.10;100977.94;1664968;84;20334;-78
2022/09/20 10:53:02;;;;;;;;;;;;;;;14.98;74.73;100973.83;1667209;84;20252;-78
2022/09/20 10:55:51;;;;;;;;;;;;;;;14.72;74.78;100971.50;1660091;84;20183;-78
2022/09/20 10:58:58;;;;;;;;;;;;;;;14.54;74.88;100972.02;1666525;84;20326;-78
2022/09/20 11:02:01;;;;;;;;;;;;;;;14.36;74.77;100974.62;1669329;84;20184;-79
2022/09/20 11:05:06;;;;;;;;;;;;;;;14.24;74.91;100967.12;1667435;84;20618;-79
2022/09/20 11:07:59;;;;;;;;;;;;;;;14.14;74.98;100967.80;1664264;84;20247;-79
2022/09/20 11:10:56;;;;;;;;;;;;;;;14.10;75.13;100971.81;1664471;84;20215;-78
2022/09/20 11:13:47;;;;;;;;;;;;;;;14.13;75.15;100972.59;1670650;84;20200;-78
2022/09/20 11:16:50;;;;;;;;;;;;;;;14.18;75.00;100973.78;1670237;83;20207;-78
2022/09/20 11:19:46;;;;;;;;;;;;;;;14.25;74.88;100974.03;1669641;84;20172;-78
2022/09/20 11:22:40;;;;;;;;;;;;;;;14.35;75.01;100964.25;1653146;84;20198;-78
2022/09/20 11:25:46;;;;;;;;;;;;;;;14.46;74.86;100966.16;1666271;84;20213;-78
2022/09/20 11:28:34;;;;;;;;;;;;;;;14.57;74.77;100959.75;1666046;83;20457;-78
2022/09/20 11:31:25;;;;;;;;;;;;;;;14.66;74.50;100956.48;1657177;84;20188;-78
2022/09/20 11:34:19;;;;;;;;;;;;;;;14.68;74.31;100956.86;1661869;84;20351;-78
2022/09/20 11:37:04;;;;;;;;;;;;;;;14.64;74.15;100962.19;1667556;84;20532;-78
2022/09/20 11:39:55;;;;;;;;;;;;;;;14.62;74.04;100965.28;1664067;84;20567;-79
2022/09/20 11:42:41;;;;;;;;;;;;;;;14.62;73.94;100972.64;1667161;84;20448;-79
2022/09/20 11:45:28;;;;;;;;;;;;;;;14.65;73.89;100968.66;1665310;82;20208;-78
2022/09/20 11:48:22;;;;;;;;;;;;;;;14.62;73.76;100975.69;1665018;84;20570;-78
2022/09/20 11:51:39;;;;;;;;;;;;;;;14.55;73.70;100975.88;1663019;82;20208;-78
2022/09/20 11:54:34;;;;;;;;;;;;;;;14.51;73.63;100987.72;1636797;84;20183;-82
2022/09/20 11:57:19;;;;;;;;;;;;;;;14.43;73.72;100991.81;1667411;84;20556;-82
2022/09/20 12:00:06;;;;;;;;;;;;;;;14.36;73.52;100995.88;1658940;83;20524;-78
2022/09/20 12:02:52;;;;;;;;;;;;;;;14.33;73.54;100998.11;1668163;84;20243;-78
2022/09/20 12:05:40;;;;;;;;;;;;;;;14.35;73.59;101005.88;1662703;84;20155;-78
2022/09/20 12:08:28;;;;;;;;;;;;;;;14.30;73.59;101003.84;1669067;84;20120;-77
2022/09/20 12:11:14;;;;;;;;;;;;;;;14.20;73.51;101014.91;1663454;84;20112;-77
2022/09/20 12:14:02;;;;;;;;;;;;;;;14.06;73.31;101018.29;1672648;84;20146;-77
2022/09/20 12:16:48;;;;;;;;;;;;;;;13.89;73.24;101019.56;1665850;84;20542;-78
2022/09/20 12:19:35;;;;;;;;;;;;;;;13.82;73.33;101016.70;1668982;84;20164;-76
2022/09/20 12:22:27;;;;;;;;;;;;;;;13.89;73.62;101014.37;1671923;82;20155;-77
2022/09/20 12:25:36;;;;;;;;;;;;;;;14.02;73.55;101019.28;1620277;86;20436;-77
2022/09/20 12:28:24;;;;;;;;;;;;;;;14.12;73.52;101019.00;1597316;87;20180;-77
2022/09/20 12:31:25;;;;;;;;;;;;;;;14.23;73.38;101030.00;1643104;85;20118;-77
2022/09/20 12:34:13;;;;;;;;;;;;;;;14.30;73.16;101019.44;1644186;85;20114;-77
2022/09/20 12:37:02;;;;;;;;;;;;;;;14.33;72.96;101038.44;1582416;88;20189;-76
2022/09/20 12:39:54;;;;;;;;;;;;;;;14.32;72.92;101036.73;1606182;87;20520;-76
2022/09/20 12:42:39;;;;;;;;;;;;;;;14.29;72.85;101033.34;1454967;87;6591404;-76
2022/09/20 12:45:23;;;;;;;;;;;;;;;14.24;72.97;101030.85;1570277;89;20189;-76
2022/09/20 12:48:12;;;;;;;;;;;;;;;14.24;72.92;101024.34;1579578;89;20179;-76
2022/09/20 12:54:26;;;;;;;;;;;;;;;14.30;72.35;101019.44;1583846;89;20670;-77
2022/09/20 12:57:17;;;;;;;;;;;;;;;14.30;72.66;101021.59;1587136;88;20682;-77
2022/09/20 13:00:05;;;;;;;;;;;;;;;14.31;72.66;101023.31;1580529;89;20227;-77
2022/09/20 13:02:53;;;;;;;;;;;;;;;14.32;72.22;101026.31;1580969;89;20227;-77
2022/09/20 13:05:41;;;;;;;;;;;;;;;14.35;72.59;101031.45;1588345;88;20263;-77
2022/09/20 13:08:32;;;;;;;;;;;;;;;14.36;71.91;101028.39;1597652;88;20209;-78
2022/09/20 13:11:20;;;;;;;;;;;;;;;14.33;72.32;101032.38;1586474;89;20234;-78
2022/09/20 13:14:08;;;;;;;;;;;;;;;14.27;72.11;101040.33;1610294;86;20161;-78
2022/09/20 13:17:15;;;;;;;;;;;;;;;14.17;72.13;101047.05;1635817;86;20193;-78
2022/09/20 13:20:00;;;;;;;;;;;;;;;14.07;72.10;101046.00;1640279;86;20165;-78
2022/09/20 13:22:47;;;;;;;;;;;;;;;13.98;72.08;101047.10;1637181;85;20209;-77
2022/09/20 13:25:32;;;;;;;;;;;;;;;13.87;72.17;101044.74;1613715;86;20169;-77
2022/09/20 13:28:32;;;;;;;;;;;;;;;13.82;72.26;101043.98;1635671;86;21033;-77
2022/09/20 13:31:23;;;;;;;;;;;;;;;13.79;72.33;101041.46;1627756;84;20209;-77
2022/09/20 13:34:19;;;;;;;;;;;;;;;13.78;72.32;101049.30;1622440;87;20217;-77
2022/09/20 13:37:04;;;;;;;;;;;;;;;13.75;72.28;101046.76;1635226;85;20588;-77
2022/09/20 13:39:53;;;;;;;;;;;;;;;13.73;72.20;101049.39;1637100;86;20222;-77
2022/09/20 13:42:39;;;;;;;;;;;;;;;13.69;72.18;101049.49;1636199;85;20361;-77
2022/09/20 13:45:25;;;;;;;;;;;;;;;13.63;72.16;101043.98;1633230;85;757150;-77
2022/09/20 13:48:10;;;;;;;;;;;;;;;13.61;72.25;101041.86;1664280;84;20219;-77
2022/09/20 13:50:55;;;;;;;;;;;;;;;13.61;72.33;101042.30;1663704;84;20459;-77
2022/09/20 13:53:40;;;;;;;;;;;;;;;13.59;72.39;101038.00;1672654;84;20127;-77
2022/09/20 13:56:28;;;;;;;;;;;;;;;13.62;72.45;101037.52;1672549;84;20440;-80
2022/09/20 13:59:16;;;;;;;;;;;;;;;13.65;72.49;101039.61;1671656;84;20139;-78
2022/09/20 14:02:02;;;;;;;;;;;;;;;13.69;72.52;101031.30;1675757;84;20135;-78
2022/09/20 14:04:49;;;;;;;;;;;;;;;13.74;72.48;101029.01;1671612;84;20171;-78
2022/09/20 14:07:35;;;;;;;;;;;;;;;13.77;72.48;101030.24;1657637;84;20760;-77
2022/09/20 14:10:32;;;;;;;;;;;;;;;13.81;72.38;101038.38;1639430;86;20104;-79
2022/09/20 14:13:17;;;;;;;;;;;;;;;13.84;72.44;101037.02;1639287;85;20134;-77
2022/09/20 14:16:02;;;;;;;;;;;;;;;13.85;72.26;101032.23;1619630;87;20447;-77
2022/09/20 14:18:48;;;;;;;;;;;;;;;13.83;72.15;101035.30;1621167;87;20114;-76
2022/09/20 14:21:34;;;;;;;;;;;;;;;13.82;72.08;101034.04;1618747;87;20127;-76
2022/09/20 14:24:25;;;;;;;;;;;;;;;13.82;72.13;101031.44;1609638;86;20428;-77
2022/09/20 14:27:21;;;;;;;;;;;;;;;13.83;72.13;101031.41;1637130;86;20434;-77
2022/09/20 14:30:08;;;;;;;;;;;;;;;13.87;71.98;101035.64;1627711;86;20102;-77
2022/09/20 14:32:54;;;;;;;;;;;;;;;13.90;71.90;101032.98;1634332;85;20135;-77
2022/09/20 14:35:42;;;;;;;;;;;;;;;13.93;71.69;101034.66;1625803;84;20430;-77
2022/09/20 14:38:26;;;;;;;;;;;;;;;13.97;71.68;101045.84;1629509;86;20136;-77
2022/09/20 14:41:12;;;;;;;;;;;;;;;13.96;71.57;101043.68;1630219;86;20127;-77
2022/09/20 14:43:58;;;;;;;;;;;;;;;13.97;71.51;101045.84;1628805;86;20155;-77
2022/09/20 14:46:43;;;;;;;;;;;;;;;13.98;71.62;101043.65;1610746;86;20461;-77
2022/09/20 14:49:32;;;;;;;;;;;;;;;13.96;71.43;101051.92;1627834;86;20168;-77
2022/09/20 14:52:29;;;;;;;;;;;;;;;13.95;71.45;101051.52;1635085;86;20103;-77
2022/09/20 14:55:17;;;;;;;;;;;;;;;13.97;71.49;101048.44;1620823;85;20199;-77
2022/09/20 14:58:08;;;;;;;;;;;;;;;13.98;71.22;101049.70;1627577;86;20213;-77
2022/09/20 15:01:00;;;;;;;;;;;;;;;13.99;71.31;101056.61;1629429;85;20247;-77
2022/09/20 15:03:44;;;;;;;;;;;;;;;14.02;71.28;101055.69;1642579;85;20178;-77
2022/09/20 15:06:29;;;;;;;;;;;;;;;14.03;71.31;101050.45;1624787;86;20200;-83
2022/09/20 15:09:13;;;;;;;;;;;;;;;14.04;71.21;101053.42;1622123;86;20225;-76
2022/09/20 15:12:14;;;;;;;;;;;;;;;14.06;71.19;101057.30;1623315;86;20366;-77
2022/09/20 15:14:59;;;;;;;;;;;;;;;14.07;71.08;101053.80;1620361;87;20611;-77